Buena Vista, CO

7:04 AM MDT on August 29, 2016 (GMT -0600)
Kettering Residence | | Change Station

Elev 8035 ft 38.84 °N, 106.15 °W | Updated 28 seconds ago

Mostly Cloudy
Mostly Cloudy
47.8 °F
Feels Like 48 °F
N
0.0
Wind Variable Wind from NE
Gusts 0.0 mph

Today
High -- | Low -- °F
--% Chance of Precip.
Yesterday
High -- | Low -- °F
Precip. -- in
Pressure 30.46 in
Visibility 10.0 miles
Clouds Mostly Cloudy 9500 ft
Windchill 48 °F
Dew Point 47 °F
Humidity 95%
Rainfall 0.00 in
Snow Depth Not available.
6:31 AM 7:38 PM
Waning Crescent, 9% visible
METAR KAEJ 291255Z AUTO 32004KT 10SM BKN095 09/07 A3046 RMK AO2 T00930073
Pressure 30.46 in
Visibility 10.0 miles
Clouds Mostly Cloudy 9500 ft
Windchill 48 °F
Dew Point 47 °F
Humidity 95%
Rainfall 0.00 in
Snow Depth Not available.
6:31 AM 7:38 PM
Waning Crescent, 9% visible
METAR KAEJ 291255Z AUTO 32004KT 10SM BKN095 09/07 A3046 RMK AO2 T00930073

10-Day Weather Forecast

Almanac

Astronomy

Aug. 29, 2016 Rise Set
Actual Time
Civil Twilight
Nautical Twilight
Astronomical Twilight
Moon
Length of Visible Light
Length of Day
Tomorrow will be .
, % of the Moon is Illuminated

Today's Extremes

State Highs State Lows

Community

WunderPhotos

Upload Photos

1,935,812 photos uploaded!

WunderBlog® & News

Nearby

Air Quality

  Air Quality AQ Index Pollutant
Not available.

Snow Depth

Station Depth Elevation

Earthquake Activity

City Distance Mag. Time & Date
Minimum magnitude displayed is 2.5.

Coastal Water Temperatures

Place Temperature

Stations

Nearby Weather Stations

Station Location Temp. Windchill Dew Point Humidity Wind Precip. Elev Updated Type
                   

Watches & Warnings

There are currently no watches in effect.